Time;durP1;ratioP1;P1;durP2;ratioP2;P2;SDS_P1;SDS_P2;PMS_P1;PMS_P2;Temp;Humidity;BMP_temperature;BMP_pressure;BME280_temperature;BME280_humidity;BME280_pressure;Samples;Min_cycle;Max_cycle;Signal;HPM_P1;HPM_P2
2022/05/07 00:01:42;;;;;;;3.25;2.85;;;12.40;99.90;;;;;;6298836;28;20230;-65
2022/05/07 00:04:47;;;;;;;5.45;3.60;;;12.40;99.90;;;;;;6298510;28;20233;-64
2022/05/07 00:07:53;;;;;;;6.07;3.20;;;12.40;99.90;;;;;;6299407;28;20225;-65
2022/05/07 00:10:59;;;;;;;3.53;3.03;;;12.40;99.90;;;;;;6299465;28;20724;-66
2022/05/07 00:14:05;;;;;;;3.00;2.90;;;12.40;99.90;;;;;;6298332;28;20230;-66
2022/05/07 00:20:36;;;;;;;3.53;3.33;;;12.40;99.90;;;;;;6297670;28;20608;-66
2022/05/07 00:23:41;;;;;;;3.72;2.78;;;12.40;99.90;;;;;;6297979;28;20242;-66
2022/05/07 00:26:46;;;;;;;4.40;3.20;;;12.40;99.90;;;;;;6298655;28;20203;-65
2022/05/07 00:29:51;;;;;;;3.63;3.40;;;12.40;99.90;;;;;;6298105;28;20241;-64
2022/05/07 00:32:58;;;;;;;8.80;2.78;;;12.40;99.90;;;;;;6297991;28;20199;-65
2022/05/07 00:36:04;;;;;;;3.05;2.90;;;12.40;99.90;;;;;;6296499;28;20234;-68
2022/05/07 00:39:09;;;;;;;3.30;3.05;;;12.30;99.90;;;;;;6297899;28;20282;-66
2022/05/07 00:42:15;;;;;;;4.72;3.33;;;12.30;99.90;;;;;;6296785;28;20235;-67
2022/05/07 00:45:21;;;;;;;3.40;3.10;;;12.40;99.90;;;;;;6297799;28;20231;-67
2022/05/07 00:48:28;;;;;;;5.03;3.13;;;12.40;99.90;;;;;;6319957;28;20199;-64
2022/05/07 00:51:37;;;;;;;6.40;3.38;;;12.40;99.90;;;;;;6321956;28;20501;-65
2022/05/07 00:54:43;;;;;;;8.18;3.42;;;12.40;99.90;;;;;;6321057;28;20310;-66
2022/05/07 00:57:48;;;;;;;3.55;3.30;;;12.40;99.90;;;;;;6321362;28;20198;-66
2022/05/07 01:00:54;;;;;;;3.28;3.17;;;12.50;99.90;;;;;;6321844;28;20242;-65
2022/05/07 01:04:02;;;;;;;3.40;3.20;;;12.50;99.90;;;;;;6320783;28;20238;-66
2022/05/07 01:07:11;;;;;;;3.25;3.15;;;12.60;99.90;;;;;;6321873;28;20198;-65
2022/05/07 01:10:17;;;;;;;3.60;3.30;;;12.60;99.90;;;;;;6325039;28;20229;-65
2022/05/07 01:13:26;;;;;;;3.80;3.55;;;12.60;99.90;;;;;;6324035;28;20207;-66
2022/05/07 01:16:33;;;;;;;4.53;3.83;;;12.70;99.90;;;;;;6328265;28;20207;-66
2022/05/07 01:19:40;;;;;;;10.93;3.75;;;12.70;99.90;;;;;;6322382;28;20239;-67
2022/05/07 01:22:49;;;;;;;5.68;3.70;;;12.70;99.90;;;;;;6321132;28;20549;-66
2022/05/07 01:26:02;;;;;;;3.97;3.65;;;12.80;99.90;;;;;;6320146;28;20234;-70
2022/05/07 01:29:12;;;;;;;4.35;3.78;;;12.80;99.90;;;;;;6320461;28;20230;-66
2022/05/07 01:32:22;;;;;;;5.40;3.88;;;12.90;99.90;;;;;;6319749;28;20280;-65
2022/05/07 01:35:27;;;;;;;3.97;3.72;;;12.90;99.90;;;;;;6320079;28;20222;-68
2022/05/07 01:38:35;;;;;;;4.38;3.97;;;12.90;99.90;;;;;;6321656;28;20207;-65
2022/05/07 01:41:41;;;;;;;3.80;3.60;;;12.90;99.90;;;;;;6322031;28;20203;-66
2022/05/07 01:44:47;;;;;;;4.93;4.00;;;12.90;99.90;;;;;;6320080;28;20234;-66
2022/05/07 01:48:11;;;;;;;4.00;3.70;;;13.00;99.90;;;;;;6301301;28;20215;-66
2022/05/07 01:51:24;;;;;;;4.13;3.83;;;13.00;99.90;;;;;;6294263;28;20211;-65
2022/05/07 01:54:31;;;;;;;4.05;3.75;;;13.00;99.90;;;;;;6294935;28;20652;-65
2022/05/07 01:57:37;;;;;;;4.15;3.53;;;13.00;99.90;;;;;;6295447;28;20214;-66
2022/05/07 02:00:43;;;;;;;4.05;3.75;;;13.00;99.90;;;;;;6294715;28;20577;-65
2022/05/07 02:03:51;;;;;;;6.25;4.13;;;13.10;99.90;;;;;;6294927;28;20231;-65
2022/05/07 02:07:01;;;;;;;4.65;3.78;;;13.10;99.90;;;;;;6295423;28;20214;-66
2022/05/07 02:10:10;;;;;;;13.15;4.22;;;13.20;99.90;;;;;;6294725;28;20700;-66
2022/05/07 02:13:19;;;;;;;3.97;3.75;;;13.10;99.90;;;;;;6295116;28;20210;-67
2022/05/07 02:16:24;;;;;;;4.55;4.03;;;13.10;99.90;;;;;;6295495;28;20214;-66
2022/05/07 02:19:30;;;;;;;10.40;4.22;;;13.10;99.90;;;;;;6296504;28;20231;-67
2022/05/07 02:22:35;;;;;;;4.68;4.25;;;13.10;99.90;;;;;;6295192;28;20563;-67
2022/05/07 02:25:43;;;;;;;6.43;3.80;;;13.20;99.90;;;;;;6294523;28;20239;-66
2022/05/07 02:28:49;;;;;;;6.32;3.70;;;13.10;99.90;;;;;;6296072;28;20586;-66
2022/05/07 02:32:06;;;;;;;3.95;3.78;;;13.20;99.90;;;;;;6295249;28;20241;-66
2022/05/07 02:35:21;;;;;;;3.88;3.58;;;13.10;99.90;;;;;;6297013;28;20247;-66
2022/05/07 02:38:27;;;;;;;4.65;4.20;;;13.10;99.90;;;;;;6296238;28;20553;-65
2022/05/07 02:44:57;;;;;;;4.30;3.92;;;13.10;99.90;;;;;;6257828;28;20249;-64
2022/05/07 02:48:02;;;;;;;5.03;3.83;;;13.20;99.90;;;;;;6320128;28;20201;-67
2022/05/07 02:51:09;;;;;;;6.90;4.15;;;13.20;99.90;;;;;;6325608;28;20233;-67
2022/05/07 02:54:16;;;;;;;5.00;4.32;;;13.20;99.90;;;;;;6325271;28;20226;-65
2022/05/07 02:57:23;;;;;;;5.32;4.20;;;13.20;99.90;;;;;;6324454;28;20298;-66
2022/05/07 03:00:28;;;;;;;4.82;4.00;;;13.20;99.90;;;;;;6325602;28;20234;-66
2022/05/07 03:03:33;;;;;;;8.55;4.15;;;13.20;99.90;;;;;;6314241;28;20234;-68
2022/05/07 03:06:42;;;;;;;4.32;3.97;;;13.30;99.90;;;;;;6310609;28;20222;-66
2022/05/07 03:09:47;;;;;;;4.60;4.28;;;13.30;99.90;;;;;;6322728;28;20252;-66
2022/05/07 03:12:54;;;;;;;4.47;4.13;;;13.30;99.90;;;;;;6299177;28;20242;-66
2022/05/07 03:16:00;;;;;;;4.75;4.43;;;13.30;99.90;;;;;;6301102;28;20211;-66
2022/05/07 03:19:06;;;;;;;4.85;4.45;;;13.30;99.90;;;;;;6313651;28;20226;-64
2022/05/07 03:22:11;;;;;;;5.35;4.72;;;13.30;99.90;;;;;;6326639;28;20226;-67
2022/05/07 03:25:17;;;;;;;4.55;4.25;;;13.30;99.90;;;;;;6323602;28;20238;-67
2022/05/07 03:28:26;;;;;;;5.60;3.95;;;13.30;99.90;;;;;;6323292;28;20699;-65
2022/05/07 03:31:32;;;;;;;5.07;4.28;;;13.30;99.90;;;;;;6323367;28;20565;-68
2022/05/07 03:34:37;;;;;;;4.32;4.13;;;13.30;99.90;;;;;;6322825;28;20238;-65
2022/05/07 03:37:43;;;;;;;5.35;3.95;;;13.30;99.90;;;;;;6301605;28;20230;-65
2022/05/07 03:40:49;;;;;;;5.40;4.93;;;13.30;99.90;;;;;;6298401;28;20210;-66
2022/05/07 03:43:57;;;;;;;4.60;4.20;;;13.30;99.90;;;;;;6297728;28;20230;-65
2022/05/07 03:47:06;;;;;;;6.07;4.53;;;13.30;99.90;;;;;;6297664;28;20219;-65
2022/05/07 03:50:14;;;;;;;5.70;4.85;;;13.30;99.90;;;;;;6298479;28;20232;-64
2022/05/07 03:53:31;;;;;;;5.82;4.68;;;13.30;99.90;;;;;;6299158;28;20239;-66
2022/05/07 03:56:45;;;;;;;4.28;3.97;;;13.30;99.90;;;;;;6297149;28;20217;-66
2022/05/07 03:59:52;;;;;;;4.68;4.38;;;13.30;99.90;;;;;;6297194;28;20247;-67
2022/05/07 04:02:59;;;;;;;4.72;4.40;;;13.40;99.90;;;;;;6297465;28;20239;-66
2022/05/07 04:06:14;;;;;;;4.50;4.20;;;13.40;99.90;;;;;;6297624;28;20247;-66
2022/05/07 04:09:20;;;;;;;4.70;4.30;;;13.40;99.90;;;;;;6330327;28;20227;-69
2022/05/07 04:12:28;;;;;;;4.88;4.32;;;13.40;99.90;;;;;;6296643;28;20231;-66
2022/05/07 04:15:36;;;;;;;10.18;4.68;;;13.40;99.90;;;;;;6297147;28;20556;-66
2022/05/07 04:18:42;;;;;;;4.80;4.30;;;13.40;99.90;;;;;;6298187;28;20233;-66
2022/05/07 04:21:52;;;;;;;5.40;4.40;;;13.40;99.90;;;;;;6296791;28;20651;-66
2022/05/07 04:25:02;;;;;;;5.43;4.95;;;13.40;99.90;;;;;;6296881;28;20204;-67
2022/05/07 04:28:28;;;;;;;6.20;4.78;;;13.40;99.90;;;;;;6296883;28;20639;-66
2022/05/07 04:31:36;;;;;;;5.00;4.60;;;13.40;99.90;;;;;;6296916;28;20237;-66
2022/05/07 04:34:45;;;;;;;5.90;4.95;;;13.40;99.90;;;;;;6295854;28;20321;-67
2022/05/07 04:37:51;;;;;;;6.55;4.70;;;13.40;99.90;;;;;;6304410;28;20230;-65
2022/05/07 04:40:56;;;;;;;5.70;5.20;;;13.40;99.90;;;;;;6305336;28;20210;-66
2022/05/07 04:44:07;;;;;;;6.03;5.15;;;13.40;99.90;;;;;;6304464;28;20632;-65
2022/05/07 04:47:14;;;;;;;6.20;5.63;;;13.40;99.90;;;;;;6304204;28;20632;-66
2022/05/07 04:50:21;;;;;;;8.98;5.68;;;13.40;99.90;;;;;;6322061;28;20209;-65
2022/05/07 04:53:32;;;;;;;10.00;6.32;;;13.40;99.90;;;;;;6321406;28;20226;-65
2022/05/07 04:56:45;;;;;;;6.68;5.68;;;13.30;99.90;;;;;;6321102;28;20207;-65
2022/05/07 04:59:51;;;;;;;8.32;5.93;;;13.30;99.90;;;;;;6278890;28;20235;-66
2022/05/07 05:02:58;;;;;;;7.18;6.57;;;13.30;99.90;;;;;;6304989;28;20234;-65
2022/05/07 05:06:05;;;;;;;11.05;6.70;;;13.40;99.90;;;;;;6304445;28;20323;-66
2022/05/07 05:09:29;;;;;;;7.35;6.65;;;13.40;99.90;;;;;;6301031;28;20231;-66
2022/05/07 05:12:42;;;;;;;8.18;6.57;;;13.40;99.90;;;;;;6304289;28;20562;-66
2022/05/07 05:15:47;;;;;;;11.70;6.70;;;13.40;99.90;;;;;;6322434;28;20545;-64
2022/05/07 05:19:13;;;;;;;8.07;7.05;;;13.40;99.90;;;;;;6320663;28;20237;-66
2022/05/07 05:22:18;;;;;;;13.07;7.18;;;13.30;99.90;;;;;;6320240;28;20226;-65
2022/05/07 05:25:26;;;;;;;8.05;7.15;;;13.20;99.90;;;;;;6320877;28;20207;-66
2022/05/07 05:28:35;;;;;;;7.97;7.00;;;13.20;99.90;;;;;;6320411;28;20235;-67
2022/05/07 05:31:44;;;;;;;10.45;6.93;;;13.20;99.90;;;;;;6321859;28;20206;-66
2022/05/07 05:34:58;;;;;;;7.20;6.50;;;13.20;99.90;;;;;;6319927;28;20285;-65
2022/05/07 05:38:13;;;;;;;10.02;6.68;;;13.20;99.90;;;;;;6320679;28;20226;-65
2022/05/07 05:41:22;;;;;;;7.72;6.55;;;13.30;99.90;;;;;;6320941;28;20207;-66
2022/05/07 05:44:29;;;;;;;10.93;7.18;;;13.30;99.90;;;;;;6320782;28;20230;-66
2022/05/07 05:47:37;;;;;;;8.82;6.88;;;13.20;99.90;;;;;;6319958;28;20238;-66
2022/05/07 05:50:47;;;;;;;8.45;6.95;;;13.20;99.90;;;;;;6320328;28;20203;-65
2022/05/07 05:53:54;;;;;;;8.70;6.90;;;13.20;99.90;;;;;;6321590;28;20226;-65
2022/05/07 05:57:00;;;;;;;13.80;7.55;;;13.20;99.90;;;;;;6319922;28;20217;-66
2022/05/07 06:00:08;;;;;;;8.60;6.75;;;13.20;99.90;;;;;;6320150;28;20241;-64
2022/05/07 06:03:20;;;;;;;7.20;6.57;;;13.20;99.90;;;;;;6321467;28;20234;-65
2022/05/07 06:06:27;;;;;;;7.95;7.15;;;13.20;99.90;;;;;;6320573;28;20209;-65
2022/05/07 06:09:34;;;;;;;7.97;6.35;;;13.20;99.90;;;;;;6319594;28;20233;-66
2022/05/07 06:12:45;;;;;;;7.68;6.38;;;13.20;99.90;;;;;;6303034;28;20238;-65
2022/05/07 06:15:52;;;;;;;6.65;6.15;;;13.20;99.90;;;;;;6303716;28;20256;-65
2022/05/07 06:19:00;;;;;;;8.25;7.05;;;13.20;99.90;;;;;;6304598;28;20234;-67
2022/05/07 06:22:10;;;;;;;10.90;6.40;;;13.20;99.90;;;;;;6307520;28;20565;-66
2022/05/07 06:28:49;;;;;;;6.78;6.10;;;13.20;99.90;;;;;;6307931;28;20235;-64
2022/05/07 06:31:55;;;;;;;7.05;6.30;;;13.30;99.90;;;;;;6326461;28;20207;-67
2022/05/07 06:35:00;;;;;;;7.93;6.18;;;13.30;99.90;;;;;;6351556;28;20559;-67
2022/05/07 06:38:09;;;;;;;6.72;6.13;;;13.30;99.90;;;;;;6350205;28;20233;-66
2022/05/07 06:41:17;;;;;;;6.40;5.80;;;13.30;99.90;;;;;;6350027;28;20212;-65
2022/05/07 06:44:39;;;;;;;6.20;5.70;;;13.20;99.90;;;;;;6332440;28;20226;-65
2022/05/07 06:47:44;;;;;;;6.82;6.05;;;13.30;99.90;;;;;;6348785;28;20230;-66
2022/05/07 06:50:50;;;;;;;7.45;6.32;;;13.40;99.90;;;;;;6332528;28;20206;-66
2022/05/07 06:54:01;;;;;;;6.22;5.82;;;13.30;99.90;;;;;;6331936;28;20240;-66
2022/05/07 06:57:08;;;;;;;6.38;5.85;;;13.30;99.90;;;;;;6350629;28;20224;-66
2022/05/07 07:00:15;;;;;;;6.70;6.10;;;13.30;99.90;;;;;;6351509;28;20703;-65
2022/05/07 07:03:21;;;;;;;6.13;5.72;;;13.40;99.90;;;;;;6350060;28;20225;-66
2022/05/07 07:06:26;;;;;;;6.55;6.03;;;13.30;99.90;;;;;;6350571;28;20212;-66
2022/05/07 07:09:33;;;;;;;6.43;5.95;;;13.40;99.90;;;;;;6350095;28;20234;-67
2022/05/07 07:12:39;;;;;;;6.30;5.78;;;13.40;99.90;;;;;;6349982;28;20229;-66
2022/05/07 07:15:45;;;;;;;6.32;5.80;;;13.40;99.90;;;;;;6350991;28;20212;-65
2022/05/07 07:18:50;;;;;;;6.05;5.65;;;13.40;99.90;;;;;;6349955;28;20238;-66
2022/05/07 07:21:56;;;;;;;6.40;5.80;;;13.40;99.90;;;;;;6349877;28;20662;-65
2022/05/07 07:25:03;;;;;;;5.97;5.38;;;13.60;99.90;;;;;;6350538;28;20205;-64
2022/05/07 07:28:10;;;;;;;6.38;5.88;;;13.50;99.90;;;;;;6331590;28;20244;-66
2022/05/07 07:31:16;;;;;;;5.70;5.20;;;13.60;99.90;;;;;;6351648;28;20231;-67
2022/05/07 07:34:22;;;;;;;5.32;4.78;;;13.50;99.90;;;;;;6351342;28;20705;-66
2022/05/07 07:37:28;;;;;;;4.85;4.63;;;13.60;99.90;;;;;;6351009;28;20228;-65
2022/05/07 07:40:35;;;;;;;5.53;5.13;;;13.60;99.90;;;;;;6352394;28;20206;-66
2022/05/07 07:43:40;;;;;;;6.50;5.25;;;13.60;99.90;;;;;;6349413;28;20274;-67
2022/05/07 07:50:09;;;;;;;4.95;4.57;;;13.60;99.90;;;;;;6348656;28;20589;-66
2022/05/07 07:53:17;;;;;;;5.47;4.88;;;13.70;99.90;;;;;;6349103;28;20225;-67
2022/05/07 07:56:23;;;;;;;5.13;4.88;;;13.60;99.90;;;;;;6349928;28;20205;-66
2022/05/07 07:59:29;;;;;;;5.25;4.95;;;13.70;99.90;;;;;;6348166;28;20233;-66
2022/05/07 08:02:34;;;;;;;6.90;5.10;;;13.70;99.90;;;;;;6348946;28;20233;-66
2022/05/07 08:05:43;;;;;;;5.30;4.90;;;13.70;99.90;;;;;;6349501;28;20216;-66
2022/05/07 08:12:13;;;;;;;5.07;4.75;;;13.80;99.90;;;;;;6348844;28;20230;-66
2022/05/07 08:15:18;;;;;;;7.47;5.57;;;13.80;99.90;;;;;;6349162;28;20210;-65
2022/05/07 08:18:24;;;;;;;4.93;4.63;;;13.80;99.90;;;;;;6348692;28;20242;-66
2022/05/07 08:21:29;;;;;;;5.53;5.10;;;13.70;99.90;;;;;;6349159;28;20657;-65
2022/05/07 08:24:34;;;;;;;5.25;4.90;;;13.80;99.90;;;;;;6349048;28;20720;-66
2022/05/07 08:27:41;;;;;;;5.72;5.22;;;13.70;99.90;;;;;;6348587;28;20232;-65
2022/05/07 08:30:47;;;;;;;5.75;5.43;;;13.70;99.90;;;;;;6349801;28;20229;-65
2022/05/07 08:33:54;;;;;;;5.47;5.07;;;13.60;99.90;;;;;;6351275;28;20276;-64
2022/05/07 08:37:00;;;;;;;6.03;5.43;;;13.60;99.90;;;;;;6353423;28;20208;-65
2022/05/07 08:40:07;;;;;;;4.93;4.65;;;13.60;99.90;;;;;;6352740;28;20247;-66
2022/05/07 08:43:16;;;;;;;3.75;3.58;;;13.50;99.90;;;;;;6347767;28;20229;-66
2022/05/07 08:46:22;;;;;;;6.00;3.00;;;13.60;99.90;;;;;;6348436;28;20209;-65
2022/05/07 08:49:28;;;;;;;2.95;2.80;;;13.60;99.90;;;;;;6350662;28;20236;-66
2022/05/07 08:52:34;;;;;;;3.13;3.03;;;13.80;99.90;;;;;;6353164;28;20608;-65
2022/05/07 08:55:43;;;;;;;2.83;2.72;;;13.80;99.90;;;;;;6353029;28;20525;-66
2022/05/07 08:58:50;;;;;;;3.20;3.10;;;13.90;99.90;;;;;;6351939;28;20221;-67
2022/05/07 09:01:56;;;;;;;2.85;2.85;;;13.80;99.90;;;;;;6347952;28;20237;-67
2022/05/07 09:05:01;;;;;;;2.95;2.80;;;13.90;99.90;;;;;;6348555;28;20202;-67
2022/05/07 09:08:08;;;;;;;3.42;3.13;;;14.00;99.90;;;;;;6347637;28;20240;-68
2022/05/07 09:11:14;;;;;;;2.85;2.72;;;14.10;99.90;;;;;;6332247;28;20580;-66
2022/05/07 09:14:21;;;;;;;3.13;2.92;;;14.10;99.90;;;;;;6322629;28;20246;-66
2022/05/07 09:17:26;;;;;;;2.78;2.60;;;14.20;99.90;;;;;;6322435;28;20240;-65
2022/05/07 09:20:32;;;;;;;2.90;2.80;;;14.20;99.90;;;;;;6323082;28;20233;-67
2022/05/07 09:23:38;;;;;;;2.70;2.70;;;14.20;99.90;;;;;;6322613;28;20222;-67
2022/05/07 09:26:44;;;;;;;2.70;2.60;;;14.30;99.90;;;;;;6322915;28;20203;-67
2022/05/07 09:30:02;;;;;;;2.70;2.60;;;14.30;99.90;;;;;;6321888;28;20237;-65
2022/05/07 09:33:07;;;;;;;2.60;2.50;;;14.20;99.90;;;;;;6322304;28;20537;-66
2022/05/07 09:36:14;;;;;;;2.55;2.45;;;14.30;99.90;;;;;;6322523;28;20198;-66
2022/05/07 09:39:20;;;;;;;2.65;2.55;;;14.30;99.90;;;;;;6321758;28;20245;-66
2022/05/07 09:42:25;;;;;;;2.35;2.35;;;14.20;99.90;;;;;;6322233;28;20719;-66
2022/05/07 09:45:32;;;;;;;2.38;2.38;;;14.20;99.90;;;;;;6322406;28;20210;-66
2022/05/07 09:48:41;;;;;;;1.98;1.98;;;14.20;99.90;;;;;;6321644;28;20608;-66
2022/05/07 09:51:47;;;;;;;1.88;1.67;;;14.00;99.90;;;;;;6322502;28;20699;-66
2022/05/07 09:58:15;;;;;;;1.27;1.27;;;12.00;99.90;;;;;;6301830;28;20250;-66
2022/05/07 10:01:34;;;;;;;1.92;1.10;;;11.60;99.90;;;;;;6301973;28;20693;-66
2022/05/07 10:05:36;;;;;;;0.95;0.95;;;11.20;99.90;;;;;;6301532;28;20227;-67
2022/05/07 10:08:54;;;;;;;2.53;1.00;;;10.70;99.90;;;;;;6257186;28;20234;-67
2022/05/07 10:12:00;;;;;;;1.02;0.98;;;10.70;99.90;;;;;;6301261;28;20699;-66
2022/05/07 10:15:07;;;;;;;1.40;1.20;;;10.40;99.90;;;;;;6302182;28;20209;-66
2022/05/07 10:18:19;;;;;;;1.20;1.20;;;10.40;99.90;;;;;;6301442;28;20324;-66
2022/05/07 10:21:25;;;;;;;1.17;1.10;;;10.50;99.90;;;;;;6301920;28;20195;-66
2022/05/07 10:24:30;;;;;;;1.13;1.13;;;10.30;99.90;;;;;;6300556;28;20226;-67
2022/05/07 10:27:39;;;;;;;1.05;1.05;;;10.20;99.90;;;;;;6301478;28;20227;-66
2022/05/07 10:30:49;;;;;;;1.05;1.05;;;10.10;99.90;;;;;;6301690;28;20223;-65
2022/05/07 10:34:00;;;;;;;1.30;1.20;;;10.10;99.90;;;;;;6301018;28;20566;-65
2022/05/07 10:37:08;;;;;;;1.35;1.25;;;10.00;99.90;;;;;;6300748;28;20204;-66
2022/05/07 10:40:14;;;;;;;1.00;1.00;;;10.00;99.90;;;;;;6301061;28;20646;-66
2022/05/07 10:43:32;;;;;;;1.35;1.13;;;10.10;99.90;;;;;;6300201;28;20227;-65
2022/05/07 10:46:43;;;;;;;1.02;1.02;;;10.10;99.90;;;;;;6300826;28;20653;-66
2022/05/07 10:49:55;;;;;;;1.27;1.27;;;10.10;99.90;;;;;;6300522;28;20234;-66
2022/05/07 10:53:01;;;;;;;1.60;1.50;;;10.00;99.90;;;;;;6299929;28;20231;-67
2022/05/07 10:56:14;;;;;;;2.38;1.17;;;10.00;99.90;;;;;;6301011;28;20229;-68
2022/05/07 10:59:20;;;;;;;1.15;1.05;;;10.00;99.90;;;;;;6299080;28;20223;-67
2022/05/07 11:02:25;;;;;;;2.28;1.50;;;10.00;99.90;;;;;;6298593;28;20234;-66
2022/05/07 11:05:33;;;;;;;1.45;1.17;;;10.00;99.90;;;;;;6300548;28;20215;-67
2022/05/07 11:08:49;;;;;;;1.10;1.10;;;10.00;99.90;;;;;;6300032;28;20223;-67
2022/05/07 11:11:57;;;;;;;1.25;1.20;;;10.10;99.90;;;;;;6320740;28;20223;-67
2022/05/07 11:15:04;;;;;;;1.23;1.17;;;9.90;99.90;;;;;;6325236;28;20209;-66
2022/05/07 11:18:16;;;;;;;4.55;2.00;;;9.60;99.90;;;;;;6324599;28;20227;-66
2022/05/07 11:21:26;;;;;;;1.80;1.70;;;9.50;99.90;;;;;;6324556;28;20211;-66
2022/05/07 11:24:32;;;;;;;1.38;1.38;;;9.70;99.90;;;;;;6324587;28;20241;-66
2022/05/07 11:27:38;;;;;;;1.40;1.30;;;9.50;99.90;;;;;;6324441;28;20231;-67
2022/05/07 11:30:51;;;;;;;1.40;1.40;;;9.30;99.90;;;;;;6306438;28;20650;-67
2022/05/07 11:34:05;;;;;;;4.22;1.63;;;9.20;99.90;;;;;;6323828;28;20226;-66
2022/05/07 11:37:16;;;;;;;1.20;1.20;;;9.20;99.90;;;;;;6324218;28;20283;-66
2022/05/07 11:40:31;;;;;;;1.17;1.17;;;9.10;99.90;;;;;;6324693;28;20209;-66
2022/05/07 11:47:00;;;;;;;2.53;1.45;;;9.10;99.90;;;;;;6323857;28;20214;-67
2022/05/07 11:50:06;;;;;;;1.27;1.27;;;9.10;99.90;;;;;;6324543;28;20207;-66
2022/05/07 11:53:16;;;;;;;1.33;1.23;;;9.20;99.90;;;;;;6317450;28;20226;-66
2022/05/07 11:56:22;;;;;;;2.00;1.38;;;9.10;99.90;;;;;;6349612;28;20209;-67
2022/05/07 11:59:27;;;;;;;1.10;1.10;;;9.20;99.90;;;;;;6348287;28;20233;-66
2022/05/07 12:02:32;;;;;;;1.80;1.10;;;9.30;99.90;;;;;;6349341;28;20236;-66
2022/05/07 12:05:43;;;;;;;2.47;1.55;;;9.30;99.90;;;;;;6349712;28;20208;-66
2022/05/07 12:08:50;;;;;;;1.52;1.42;;;9.20;99.90;;;;;;6348788;28;20235;-66
2022/05/07 12:11:56;;;;;;;2.53;1.50;;;9.30;99.90;;;;;;6327306;28;20676;-68
2022/05/07 12:15:03;;;;;;;2.67;1.50;;;9.30;99.90;;;;;;6324689;28;20213;-66
2022/05/07 12:18:11;;;;;;;1.77;1.35;;;9.30;99.90;;;;;;6323587;28;20230;-66
2022/05/07 12:21:16;;;;;;;3.50;1.40;;;9.30;99.90;;;;;;6325356;28;20225;-66
2022/05/07 12:31:11;;;;;;;1.30;1.20;;;9.60;99.90;;;;;;6324752;28;20218;-66
2022/05/07 12:34:18;;;;;;;1.10;1.10;;;9.70;99.90;;;;;;6325055;28;20680;-66
2022/05/07 12:37:23;;;;;;;1.88;1.20;;;9.80;99.90;;;;;;6324117;28;20248;-65
2022/05/07 12:40:30;;;;;;;1.10;1.00;;;9.80;99.90;;;;;;6323778;28;20235;-66
2022/05/07 12:43:35;;;;;;;2.90;1.50;;;10.00;99.90;;;;;;6323335;28;20248;-66
2022/05/07 12:46:40;;;;;;;1.30;1.30;;;10.20;99.90;;;;;;6323698;28;20221;-66
2022/05/07 12:49:46;;;;;;;3.90;1.13;;;10.10;99.90;;;;;;6323196;28;20257;-67
2022/05/07 12:52:51;;;;;;;1.17;1.17;;;10.10;99.90;;;;;;6322502;28;20348;-66
2022/05/07 12:55:59;;;;;;;1.25;1.25;;;10.30;99.90;;;;;;6323135;28;20202;-66
2022/05/07 12:59:06;;;;;;;1.15;1.15;;;10.40;99.90;;;;;;6321834;28;20234;-67
2022/05/07 13:02:12;;;;;;;1.63;1.38;;;10.50;99.90;;;;;;6322583;28;20257;-67
2022/05/07 13:05:21;;;;;;;1.20;1.10;;;10.50;99.90;;;;;;6322855;28;20210;-66
2022/05/07 13:08:47;;;;;;;1.35;1.25;;;10.70;99.90;;;;;;6322258;28;20278;-66
2022/05/07 13:11:54;;;;;;;3.42;1.15;;;10.70;99.90;;;;;;6342432;28;20212;-68
2022/05/07 13:15:00;;;;;;;1.17;1.15;;;10.70;99.90;;;;;;6347678;28;20212;-66
2022/05/07 13:18:06;;;;;;;1.40;1.30;;;10.80;99.90;;;;;;6347255;28;20675;-66
2022/05/07 13:21:14;;;;;;;1.42;1.20;;;10.70;99.90;;;;;;6347387;28;20194;-66
2022/05/07 13:24:19;;;;;;;1.67;1.58;;;10.70;99.90;;;;;;6329448;28;20233;-66
2022/05/07 13:27:33;;;;;;;1.48;1.15;;;10.70;99.90;;;;;;6347703;28;20243;-66
2022/05/07 13:30:38;;;;;;;1.27;1.17;;;10.90;99.90;;;;;;6348575;28;20201;-68
2022/05/07 13:33:45;;;;;;;0.90;0.90;;;11.00;99.90;;;;;;6347014;28;20236;-66
2022/05/07 13:36:50;;;;;;;2.63;1.10;;;11.00;99.90;;;;;;6347782;28;20205;-66
2022/05/07 13:39:57;;;;;;;1.23;1.23;;;11.10;99.90;;;;;;6347163;28;20605;-66
2022/05/07 13:43:04;;;;;;;2.80;1.00;;;11.10;99.90;;;;;;6347580;28;20233;-65
2022/05/07 13:46:12;;;;;;;2.65;1.08;;;11.30;99.90;;;;;;6351008;28;20232;-66
2022/05/07 13:49:17;;;;;;;1.13;1.13;;;11.40;99.90;;;;;;6356655;28;20296;-65
2022/05/07 13:52:23;;;;;;;1.20;1.20;;;11.40;99.90;;;;;;6363080;28;20235;-66
2022/05/07 13:55:28;;;;;;;3.35;1.15;;;11.40;99.90;;;;;;6361842;28;20208;-64
2022/05/07 13:58:37;;;;;;;1.30;1.30;;;11.50;99.90;;;;;;6360806;28;20240;-64
2022/05/07 14:01:43;;;;;;;2.13;1.40;;;11.60;99.90;;;;;;6360947;28;20229;-66
2022/05/07 14:04:49;;;;;;;1.65;1.20;;;11.40;99.90;;;;;;6351857;28;20226;-66
2022/05/07 14:07:54;;;;;;;1.30;1.00;;;11.40;99.90;;;;;;6345843;28;20684;-67
2022/05/07 14:11:00;;;;;;;3.25;1.10;;;11.30;99.90;;;;;;6332978;28;20606;-67
2022/05/07 14:14:07;;;;;;;1.17;1.13;;;11.50;99.90;;;;;;6320683;28;20238;-66
2022/05/07 14:17:12;;;;;;;1.95;1.20;;;11.50;99.90;;;;;;6321593;28;20234;-66
2022/05/07 14:20:18;;;;;;;1.20;1.17;;;11.60;99.90;;;;;;6320913;28;20207;-65
2022/05/07 14:23:23;;;;;;;1.52;1.35;;;11.60;99.90;;;;;;6321033;28;20231;-65
2022/05/07 14:26:35;;;;;;;1.00;1.00;;;11.50;99.90;;;;;;6321962;28;20209;-64
2022/05/07 14:29:42;;;;;;;3.20;1.15;;;11.40;99.90;;;;;;6321342;28;20658;-66
2022/05/07 14:32:48;;;;;;;1.45;1.30;;;11.40;99.90;;;;;;6321154;28;20241;-67
2022/05/07 14:35:54;;;;;;;2.65;1.33;;;11.60;99.90;;;;;;6322115;28;20230;-66
2022/05/07 14:38:59;;;;;;;1.10;1.10;;;11.80;99.90;;;;;;6320639;28;20689;-68
2022/05/07 14:42:07;;;;;;;1.67;1.27;;;11.90;99.90;;;;;;6325683;28;20213;-67
2022/05/07 14:45:14;;;;;;;1.65;1.30;;;12.00;99.90;;;;;;6327210;28;20213;-66
2022/05/07 14:48:20;;;;;;;1.60;1.50;;;12.00;99.90;;;;;;6328663;28;20310;-65
2022/05/07 14:51:27;;;;;;;1.30;1.20;;;12.10;99.90;;;;;;6325106;28;20213;-66
2022/05/07 14:54:33;;;;;;;1.80;1.30;;;12.00;99.60;;;;;;6326657;28;20243;-65
2022/05/07 14:57:38;;;;;;;1.85;1.10;;;11.90;99.90;;;;;;6326444;28;20223;-66
2022/05/07 15:00:45;;;;;;;1.15;1.15;;;11.90;99.90;;;;;;6326456;28;20226;-65
2022/05/07 15:03:50;;;;;;;1.25;1.25;;;11.80;99.80;;;;;;6324556;28;20237;-65
2022/05/07 15:06:56;;;;;;;1.55;1.20;;;11.90;99.10;;;;;;6327241;28;20203;-67
2022/05/07 15:13:26;;;;;;;1.38;1.38;;;12.00;97.90;;;;;;6350110;28;20226;-66
2022/05/07 15:16:32;;;;;;;1.75;1.20;;;12.10;97.80;;;;;;6350806;28;20197;-66
2022/05/07 15:19:38;;;;;;;3.30;1.30;;;12.00;96.60;;;;;;6351396;28;20256;-64
2022/05/07 15:22:43;;;;;;;1.20;1.10;;;11.90;96.60;;;;;;6351959;28;20229;-66
2022/05/07 15:25:53;;;;;;;1.30;1.17;;;12.00;96.90;;;;;;6352387;28;20601;-67
2022/05/07 15:28:58;;;;;;;1.20;1.10;;;11.90;96.10;;;;;;6351708;28;20659;-66
2022/05/07 15:38:56;;;;;;;2.83;1.30;;;12.10;96.20;;;;;;6351103;28;20241;-67
2022/05/07 15:42:02;;;;;;;1.30;1.20;;;12.10;95.90;;;;;;6351476;28;20202;-66
2022/05/07 15:45:11;;;;;;;1.40;1.30;;;12.20;95.60;;;;;;6351670;28;20205;-65
2022/05/07 15:48:18;;;;;;;1.73;1.63;;;12.30;95.50;;;;;;6351016;28;20705;-66
2022/05/07 15:51:24;;;;;;;2.00;1.20;;;12.20;94.80;;;;;;6349905;28;20534;-66
2022/05/07 15:54:29;;;;;;;1.10;1.10;;;12.10;94.70;;;;;;6350639;28;20238;-66
2022/05/07 15:57:34;;;;;;;1.92;1.13;;;12.10;94.40;;;;;;6351546;28;20240;-66
2022/05/07 16:00:40;;;;;;;1.55;1.30;;;12.10;94.10;;;;;;6352430;28;20526;-65
2022/05/07 16:03:47;;;;;;;1.48;1.20;;;12.10;94.50;;;;;;6333079;28;20233;-66
2022/05/07 16:06:53;;;;;;;1.42;1.30;;;12.10;93.90;;;;;;6351286;28;20214;-66
2022/05/07 16:10:14;;;;;;;2.47;1.10;;;12.10;93.90;;;;;;6343947;28;20195;-66
2022/05/07 16:13:20;;;;;;;1.20;1.20;;;12.10;94.60;;;;;;6325682;28;20597;-65
2022/05/07 16:16:25;;;;;;;1.10;1.10;;;12.20;93.90;;;;;;6324695;28;20227;-65
2022/05/07 16:19:32;;;;;;;1.10;1.10;;;12.20;93.90;;;;;;6325549;28;20226;-65
2022/05/07 16:26:00;;;;;;;1.27;1.00;;;12.30;93.30;;;;;;6308238;28;20668;-66
2022/05/07 16:29:06;;;;;;;3.95;1.00;;;12.20;93.10;;;;;;6325723;28;20230;-65
2022/05/07 16:32:12;;;;;;;1.25;1.20;;;12.30;93.60;;;;;;6325197;28;20236;-66
2022/05/07 16:35:19;;;;;;;1.13;1.13;;;12.30;93.30;;;;;;6326489;28;20223;-67
2022/05/07 16:38:24;;;;;;;2.13;1.33;;;12.30;93.30;;;;;;6309712;28;20237;-66
2022/05/07 16:41:30;;;;;;;3.42;1.65;;;12.30;95.40;;;;;;6329375;28;20220;-65
2022/05/07 16:44:35;;;;;;;2.08;1.23;;;12.30;93.40;;;;;;6327187;28;20244;-66
2022/05/07 16:47:41;;;;;;;4.80;1.42;;;12.30;93.80;;;;;;6323564;28;20230;-66
2022/05/07 16:50:48;;;;;;;2.53;1.30;;;12.40;94.10;;;;;;6323169;28;20198;-67
2022/05/07 16:53:53;;;;;;;0.93;0.93;;;12.40;94.40;;;;;;6322921;28;20715;-65
2022/05/07 16:56:58;;;;;;;2.08;1.02;;;12.50;94.30;;;;;;6323189;28;20688;-66
2022/05/07 17:00:05;;;;;;;1.52;1.13;;;12.50;94.40;;;;;;6322579;28;20230;-67
2022/05/07 17:03:16;;;;;;;2.45;1.40;;;12.60;95.50;;;;;;6322436;28;20230;-67